Terminal Aerodrome Forecast
Issued by NWS Shreveport, LA

Home | Current Version | Previous Version | Text Only | Print | Product List | Glossary On
Versions: 1 2 3 4 5 6 7 8 9 10 11 12 13 14 15 16 17 18 19 20 21 22
000
FTUS44 KSHV 232328
TAFTYR
TAF
KTYR 232328Z 2400/2424 16012G20KT P6SM SKC
     FM240900 17014G22KT P6SM BKN030
      TEMPO 2410/2414 OVC020
     FM241700 18018G30KT P6SM VCTS BKN050CB
      TEMPO 2419/2422 VRB25G50KT 1SM +TSRA BR OVC020CB=

USA.gov is the U.S. government's official web portal to all federal, state and local government web resources and services.